Deer Lake, Canada
Current Conditions -  °F | °C
As of 4:00 AM on Wednesday 22 Oct 2014 (Local Time) from CYDF Reporting Station
Scattered Clouds Scattered Clouds  
Wind Chill: 37°   Ceiling: Unl
Heat Index: 37°   Visibility: 15mi
Dew Point: 36°   Wind: 3mph
Humidity: 93%   Direction: 20°NNE
Pressure: 30.33"   Gusts: NA
Location:  49.21°N, 57.4°W
Report Text: CYDF 220600Z 02003KT 15SM SCT043 03/02 A3033 RMK SC4 SLP272
Loading
Personal Weather Stations






























Interactive Weather Map
Tropical Storm Tracking
New forecast layout! Learn more

10-Day Weather Forecast

Advertisements
Track Severe Weather on mobile